Time;durP1;ratioP1;P1;durP2;ratioP2;P2;SDS_P1;SDS_P2;PMS_P1;PMS_P2;Temp;Humidity;BMP_temperature;BMP_pressure;BME280_temperature;BME280_humidity;BME280_pressure;Samples;Min_cycle;Max_cycle;Signal;HPM_P1;HPM_P2
2022/03/27 00:01:41;;;;;;;1.73;1.20;;;17.20;59.80;;;;;;5222038;28;20258;-68
2022/03/27 00:04:33;;;;;;;1.60;1.23;;;17.20;59.90;;;;;;5223607;28;20334;-69
2022/03/27 00:07:27;;;;;;;1.80;1.27;;;17.20;59.80;;;;;;5222264;28;20197;-69
2022/03/27 00:10:19;;;;;;;3.40;1.40;;;17.20;59.90;;;;;;5223448;28;20276;-68
2022/03/27 00:13:11;;;;;;;1.87;1.10;;;17.20;59.90;;;;;;5222854;28;20844;-69
2022/03/27 00:16:04;;;;;;;1.60;1.20;;;17.20;59.80;;;;;;5223238;28;20250;-69
2022/03/27 00:18:56;;;;;;;2.03;1.03;;;17.20;59.80;;;;;;5222535;28;20201;-68
2022/03/27 00:21:49;;;;;;;1.60;1.30;;;17.20;59.80;;;;;;5222298;28;20216;-69
2022/03/27 00:24:43;;;;;;;1.67;1.20;;;17.20;59.90;;;;;;5223235;28;20205;-69
2022/03/27 00:27:35;;;;;;;3.83;1.27;;;17.20;59.90;;;;;;5223091;28;21058;-69
2022/03/27 00:30:27;;;;;;;1.70;1.20;;;17.20;59.90;;;;;;5223032;28;20193;-69
2022/03/27 00:33:19;;;;;;;1.90;1.30;;;17.20;59.80;;;;;;5222601;28;20227;-69
2022/03/27 00:36:13;;;;;;;2.00;1.00;;;17.20;59.90;;;;;;5222878;28;20216;-69
2022/03/27 00:39:05;;;;;;;2.23;1.30;;;17.20;59.90;;;;;;5221562;28;20574;-69
2022/03/27 00:41:59;;;;;;;2.43;1.30;;;17.20;59.90;;;;;;5221897;28;20217;-69
2022/03/27 00:44:51;;;;;;;2.90;1.50;;;17.10;59.90;;;;;;5222784;28;20279;-69
2022/03/27 00:47:44;;;;;;;1.73;1.40;;;17.20;59.90;;;;;;5222350;28;20201;-69
2022/03/27 00:50:36;;;;;;;1.93;1.27;;;17.20;59.90;;;;;;5221697;28;20323;-68
2022/03/27 00:53:28;;;;;;;1.93;1.50;;;17.20;59.90;;;;;;5221294;28;20339;-69
2022/03/27 00:56:20;;;;;;;3.00;1.43;;;17.20;59.90;;;;;;5221222;28;20197;-68
2022/03/27 00:59:14;;;;;;;3.67;1.53;;;17.20;59.90;;;;;;5215364;28;20210;-69
2022/03/27 01:02:06;;;;;;;1.77;1.40;;;17.20;59.90;;;;;;5220921;28;20224;-69
2022/03/27 01:04:58;;;;;;;3.20;1.77;;;17.20;59.90;;;;;;5221525;28;20280;-69
2022/03/27 01:07:50;;;;;;;3.30;1.63;;;17.20;59.90;;;;;;5222409;28;20201;-69
2022/03/27 01:10:42;;;;;;;3.30;1.03;;;17.20;59.90;;;;;;5222131;28;20193;-69
2022/03/27 01:13:35;;;;;;;2.30;1.53;;;17.10;59.90;;;;;;5220322;28;20229;-69
2022/03/27 01:16:38;;;;;;;1.60;1.30;;;17.20;59.90;;;;;;5221777;28;20198;-69
2022/03/27 01:19:31;;;;;;;1.70;1.30;;;17.10;59.90;;;;;;5221251;28;20327;-69
2022/03/27 01:22:25;;;;;;;2.63;1.40;;;17.10;59.80;;;;;;5221098;28;20213;-69
2022/03/27 01:25:17;;;;;;;2.43;1.60;;;17.20;60.00;;;;;;5222454;28;20201;-69
2022/03/27 01:28:13;;;;;;;2.07;1.30;;;17.20;59.90;;;;;;5221765;28;20613;-69
2022/03/27 01:31:07;;;;;;;3.23;1.47;;;17.10;59.90;;;;;;5221000;28;20231;-69
2022/03/27 01:33:59;;;;;;;2.43;1.30;;;17.10;59.90;;;;;;5221164;28;20311;-69
2022/03/27 01:36:51;;;;;;;1.50;1.30;;;17.10;59.90;;;;;;5221813;28;20201;-69
2022/03/27 01:39:45;;;;;;;2.07;1.20;;;17.10;59.90;;;;;;5221017;28;20921;-69
2022/03/27 01:42:37;;;;;;;2.83;1.30;;;17.10;59.90;;;;;;5221319;28;20739;-69
2022/03/27 01:45:29;;;;;;;2.27;1.40;;;17.10;59.90;;;;;;5221320;28;20328;-69
2022/03/27 01:48:21;;;;;;;3.40;1.53;;;17.10;59.90;;;;;;5220862;28;20197;-69
2022/03/27 01:51:14;;;;;;;1.73;1.23;;;17.10;59.90;;;;;;5219271;28;20221;-69
2022/03/27 01:54:06;;;;;;;3.43;1.47;;;17.10;59.90;;;;;;5221632;28;20238;-69
2022/03/27 01:57:00;;;;;;;1.83;1.20;;;17.10;59.90;;;;;;5201099;28;20247;-69
2022/03/27 01:59:52;;;;;;;2.07;1.30;;;17.10;59.90;;;;;;5217844;28;20209;-68
2022/03/27 02:02:45;;;;;;;2.90;1.60;;;17.10;59.90;;;;;;5220023;28;20248;-69
2022/03/27 02:05:37;;;;;;;1.77;1.23;;;17.10;59.90;;;;;;5220415;28;20240;-69
2022/03/27 02:08:29;;;;;;;3.07;1.60;;;17.10;59.90;;;;;;5223522;28;20201;-69
2022/03/27 02:11:22;;;;;;;2.90;1.33;;;17.20;60.00;;;;;;5224124;28;20320;-69
2022/03/27 02:14:15;;;;;;;2.90;1.60;;;17.10;60.00;;;;;;5224587;28;20247;-69
2022/03/27 02:17:08;;;;;;;3.40;1.37;;;17.10;60.00;;;;;;5224656;28;20998;-69
2022/03/27 02:20:00;;;;;;;3.37;1.70;;;17.10;60.00;;;;;;5224940;28;20857;-69
2022/03/27 02:22:52;;;;;;;3.20;1.50;;;17.10;60.00;;;;;;5223954;28;20331;-69
2022/03/27 02:25:44;;;;;;;2.30;1.50;;;17.10;60.00;;;;;;5223506;28;20216;-69
2022/03/27 02:28:36;;;;;;;2.47;1.73;;;17.10;59.90;;;;;;5225358;28;20209;-69
2022/03/27 02:31:30;;;;;;;2.90;1.40;;;17.10;59.90;;;;;;5224864;28;20217;-69
2022/03/27 02:34:22;;;;;;;3.17;1.70;;;17.10;59.90;;;;;;5224585;28;20273;-68
2022/03/27 02:37:14;;;;;;;3.10;1.73;;;17.10;59.90;;;;;;5224779;28;20279;-69
2022/03/27 02:40:08;;;;;;;2.77;1.37;;;17.10;60.00;;;;;;5224868;28;20290;-69
2022/03/27 02:43:00;;;;;;;1.90;1.10;;;17.10;59.90;;;;;;5224749;28;20283;-69
2022/03/27 02:45:53;;;;;;;2.43;1.47;;;17.10;60.60;;;;;;5225610;28;20812;-69
2022/03/27 02:48:46;;;;;;;3.00;1.50;;;17.10;60.00;;;;;;5224559;28;20251;-69
2022/03/27 02:51:39;;;;;;;3.60;1.80;;;17.10;60.00;;;;;;5223620;28;20339;-69
2022/03/27 02:54:32;;;;;;;2.33;1.70;;;17.10;60.00;;;;;;5219093;28;20216;-68
2022/03/27 02:57:24;;;;;;;2.07;1.20;;;17.10;60.40;;;;;;5224268;28;20624;-69
2022/03/27 03:00:17;;;;;;;2.33;1.50;;;17.10;60.00;;;;;;5197763;28;20586;-68
2022/03/27 03:03:10;;;;;;;2.10;1.50;;;17.10;60.00;;;;;;5195554;28;20190;-69
2022/03/27 03:06:07;;;;;;;2.53;1.47;;;17.10;59.90;;;;;;5183259;28;20195;-69
2022/03/27 03:08:59;;;;;;;2.63;1.67;;;17.10;59.90;;;;;;5183265;28;20235;-68
2022/03/27 03:11:52;;;;;;;2.40;1.60;;;17.10;60.00;;;;;;5193096;28;20602;-69
2022/03/27 03:14:44;;;;;;;2.60;1.53;;;17.10;60.00;;;;;;5199917;28;20232;-69
2022/03/27 03:17:37;;;;;;;3.73;1.60;;;17.10;59.90;;;;;;5202922;28;20268;-69
2022/03/27 03:20:30;;;;;;;2.30;1.40;;;17.10;60.00;;;;;;5203162;28;20201;-68
2022/03/27 03:23:23;;;;;;;4.27;2.03;;;17.10;60.00;;;;;;5202994;28;20251;-69
2022/03/27 03:26:15;;;;;;;3.17;1.53;;;17.10;60.00;;;;;;5203204;28;20201;-69
2022/03/27 03:29:07;;;;;;;4.23;1.43;;;17.10;60.00;;;;;;5203338;28;20688;-69
2022/03/27 03:32:00;;;;;;;2.50;1.70;;;17.10;59.90;;;;;;5202465;28;20217;-69
2022/03/27 03:34:52;;;;;;;1.73;1.57;;;17.10;60.00;;;;;;5202682;28;20217;-69
2022/03/27 03:37:44;;;;;;;2.93;1.57;;;17.10;59.90;;;;;;5204194;28;20198;-68
2022/03/27 03:40:40;;;;;;;2.57;1.43;;;17.10;60.00;;;;;;5202199;28;20247;-69
2022/03/27 03:43:32;;;;;;;3.13;1.53;;;17.10;59.90;;;;;;5202570;28;20197;-69
2022/03/27 03:46:24;;;;;;;2.13;1.43;;;17.10;60.00;;;;;;5203172;28;20194;-69
2022/03/27 03:49:16;;;;;;;2.13;1.53;;;17.10;60.00;;;;;;5203354;28;20190;-69
2022/03/27 03:52:09;;;;;;;3.63;2.03;;;17.10;60.00;;;;;;5200110;28;20275;-69
2022/03/27 03:55:01;;;;;;;4.10;1.70;;;17.10;60.00;;;;;;5200693;28;20222;-69
2022/03/27 03:57:54;;;;;;;3.40;1.63;;;17.00;60.00;;;;;;5202822;28;20291;-69
2022/03/27 04:00:47;;;;;;;3.03;1.93;;;17.10;60.00;;;;;;5219348;28;20279;-68
2022/03/27 04:03:39;;;;;;;3.97;2.07;;;17.10;60.00;;;;;;5223206;28;20197;-69
2022/03/27 04:06:31;;;;;;;2.07;1.50;;;17.00;60.00;;;;;;5223189;28;20192;-69
2022/03/27 04:09:23;;;;;;;3.03;1.87;;;17.10;60.70;;;;;;5221576;28;20258;-68
2022/03/27 04:12:15;;;;;;;2.93;1.40;;;17.10;60.00;;;;;;5221967;28;20220;-69
2022/03/27 04:15:11;;;;;;;3.17;1.77;;;17.10;60.00;;;;;;5202219;28;20588;-69
2022/03/27 04:18:03;;;;;;;2.10;1.40;;;17.10;59.90;;;;;;5202142;28;20198;-69
2022/03/27 04:20:55;;;;;;;4.53;1.87;;;17.10;60.00;;;;;;5206636;28;20659;-68
2022/03/27 04:23:48;;;;;;;2.63;1.80;;;17.10;60.00;;;;;;5222462;28;20185;-69
2022/03/27 04:26:40;;;;;;;3.03;2.03;;;17.10;60.50;;;;;;5223123;28;20201;-69
2022/03/27 04:29:33;;;;;;;2.67;1.73;;;17.00;60.00;;;;;;5222566;28;20209;-69
2022/03/27 04:32:26;;;;;;;2.43;1.53;;;17.10;59.90;;;;;;5222028;28;20221;-69
2022/03/27 04:35:18;;;;;;;2.43;1.43;;;17.10;59.90;;;;;;5222954;28;20220;-69
2022/03/27 04:38:10;;;;;;;2.80;1.73;;;17.10;59.90;;;;;;5222874;28;20915;-68
2022/03/27 04:41:03;;;;;;;4.10;2.00;;;17.10;60.00;;;;;;5222610;28;20214;-69
2022/03/27 04:43:55;;;;;;;3.37;1.90;;;17.10;60.00;;;;;;5222975;28;20593;-69
2022/03/27 04:46:47;;;;;;;2.27;1.80;;;17.00;59.90;;;;;;5222694;28;20667;-69
2022/03/27 04:49:41;;;;;;;3.73;1.93;;;17.10;60.00;;;;;;5222724;28;20197;-69
2022/03/27 04:52:33;;;;;;;3.43;1.90;;;17.10;60.00;;;;;;5221796;28;20270;-69
2022/03/27 04:55:25;;;;;;;3.63;1.93;;;17.10;60.00;;;;;;5222670;28;20221;-69
2022/03/27 04:58:17;;;;;;;2.83;1.77;;;17.10;59.90;;;;;;5201963;28;20643;-68
2022/03/27 05:01:10;;;;;;;2.20;1.77;;;17.10;59.90;;;;;;5207127;28;20217;-69
2022/03/27 05:04:02;;;;;;;3.10;1.90;;;17.10;60.00;;;;;;5222406;28;20235;-69
2022/03/27 05:06:56;;;;;;;2.73;2.00;;;17.00;59.90;;;;;;5222455;28;20201;-69
2022/03/27 05:09:48;;;;;;;2.60;1.87;;;17.00;59.90;;;;;;5213003;28;20217;-68
2022/03/27 05:12:40;;;;;;;3.17;1.87;;;17.10;59.90;;;;;;5203703;28;20221;-68
2022/03/27 05:15:32;;;;;;;2.20;1.70;;;17.10;59.90;;;;;;5221052;28;20278;-69
2022/03/27 05:18:24;;;;;;;2.60;2.00;;;17.10;59.90;;;;;;5222289;28;20335;-69
2022/03/27 05:21:16;;;;;;;3.33;2.03;;;17.10;59.80;;;;;;5220957;28;20221;-69
2022/03/27 05:24:10;;;;;;;3.63;1.90;;;17.10;59.90;;;;;;5222200;28;20195;-69
2022/03/27 05:27:02;;;;;;;3.37;2.07;;;17.10;59.80;;;;;;5221775;28;20201;-68
2022/03/27 05:29:54;;;;;;;2.80;1.77;;;17.10;59.80;;;;;;5221184;28;20300;-69
2022/03/27 05:32:47;;;;;;;2.50;1.97;;;17.10;59.70;;;;;;5221487;28;20252;-68
2022/03/27 05:35:40;;;;;;;2.27;1.70;;;17.10;59.80;;;;;;5220912;28;20221;-69
2022/03/27 05:38:32;;;;;;;2.50;1.60;;;17.10;59.80;;;;;;5221792;28;20194;-68
2022/03/27 05:41:26;;;;;;;2.87;1.97;;;17.10;59.80;;;;;;5221319;28;20717;-69
2022/03/27 05:44:18;;;;;;;3.40;2.03;;;17.10;59.80;;;;;;5221656;28;20193;-68
2022/03/27 05:47:10;;;;;;;2.87;1.97;;;17.10;59.80;;;;;;5221887;28;20674;-69
2022/03/27 05:50:02;;;;;;;2.83;1.83;;;17.10;59.70;;;;;;5205466;28;20197;-68
2022/03/27 05:52:55;;;;;;;2.67;2.13;;;17.10;59.70;;;;;;5218838;28;20709;-68
2022/03/27 05:55:47;;;;;;;3.83;2.40;;;17.10;59.70;;;;;;5221145;28;20201;-69
2022/03/27 05:58:41;;;;;;;3.17;1.80;;;17.10;59.70;;;;;;5220517;28;20215;-68
2022/03/27 06:01:34;;;;;;;2.50;1.73;;;17.10;59.70;;;;;;5220015;28;20217;-69
2022/03/27 06:04:26;;;;;;;2.03;1.60;;;17.10;59.70;;;;;;5221414;28;20283;-69
2022/03/27 06:07:18;;;;;;;4.83;2.40;;;17.10;59.80;;;;;;5220922;28;20266;-69
2022/03/27 06:10:11;;;;;;;3.50;1.90;;;17.10;59.70;;;;;;5221421;28;20230;-69
2022/03/27 06:13:04;;;;;;;3.53;2.00;;;17.10;59.70;;;;;;5220864;28;20217;-69
2022/03/27 06:15:58;;;;;;;2.90;1.90;;;17.10;59.70;;;;;;5221382;28;20197;-69
2022/03/27 06:18:50;;;;;;;2.93;1.93;;;17.10;59.80;;;;;;5220427;28;20216;-68
2022/03/27 06:21:43;;;;;;;2.97;1.67;;;17.10;59.70;;;;;;5211279;28;20806;-68
2022/03/27 06:24:35;;;;;;;3.90;2.00;;;17.10;59.70;;;;;;5220870;28;20220;-68
2022/03/27 06:27:27;;;;;;;3.50;2.30;;;17.10;59.70;;;;;;5220953;28;20539;-69
2022/03/27 06:30:22;;;;;;;3.90;1.73;;;17.10;59.70;;;;;;5220748;28;20331;-69
2022/03/27 06:33:16;;;;;;;3.27;2.13;;;17.10;59.80;;;;;;5219080;28;20201;-69
2022/03/27 06:36:08;;;;;;;3.73;2.03;;;17.10;59.80;;;;;;5220321;28;20635;-68
2022/03/27 06:39:00;;;;;;;2.97;1.90;;;17.10;59.70;;;;;;5219514;28;20270;-68
2022/03/27 06:41:52;;;;;;;3.07;2.00;;;17.10;59.80;;;;;;5218301;28;20239;-69
2022/03/27 06:44:44;;;;;;;3.03;2.07;;;17.10;59.70;;;;;;5220625;28;20276;-68
2022/03/27 06:47:37;;;;;;;3.30;1.87;;;17.10;59.80;;;;;;5220554;28;20713;-69
2022/03/27 06:50:30;;;;;;;5.10;2.33;;;17.10;59.70;;;;;;5207897;28;20559;-69
2022/03/27 06:53:24;;;;;;;3.33;2.20;;;17.10;59.70;;;;;;5219746;28;20685;-69
2022/03/27 06:56:17;;;;;;;2.90;1.93;;;17.10;59.70;;;;;;5224773;28;20197;-69
2022/03/27 06:59:09;;;;;;;3.80;2.20;;;17.10;59.80;;;;;;5222480;28;20221;-69
2022/03/27 07:05:14;;;;;;;2.57;1.83;;;17.10;59.80;;;;;;5221289;28;20189;-69
2022/03/27 07:08:09;;;;;;;2.73;2.07;;;17.10;59.70;;;;;;5222960;28;20450;-69
2022/03/27 07:11:01;;;;;;;3.50;2.27;;;17.10;59.70;;;;;;5223741;28;20300;-68
2022/03/27 07:13:53;;;;;;;4.47;2.17;;;17.10;59.70;;;;;;5223032;28;20205;-69
2022/03/27 07:16:46;;;;;;;4.80;2.60;;;17.10;59.80;;;;;;5219181;28;20186;-69
2022/03/27 07:19:38;;;;;;;4.90;2.30;;;17.10;59.80;;;;;;5222865;28;20308;-69
2022/03/27 07:22:30;;;;;;;2.17;1.73;;;17.10;59.80;;;;;;5222591;28;20301;-69
2022/03/27 07:25:25;;;;;;;2.87;1.93;;;17.10;59.80;;;;;;5223032;28;20196;-69
2022/03/27 07:28:19;;;;;;;2.73;1.93;;;17.10;59.80;;;;;;5222622;28;20186;-69
2022/03/27 07:31:12;;;;;;;4.40;2.23;;;17.10;59.80;;;;;;5222397;28;20232;-69
2022/03/27 07:34:04;;;;;;;3.97;2.17;;;17.10;59.80;;;;;;5223452;28;20454;-69
2022/03/27 07:36:56;;;;;;;2.80;1.80;;;17.00;59.70;;;;;;5223270;28;20882;-69
2022/03/27 07:39:48;;;;;;;3.03;2.00;;;17.10;59.70;;;;;;5223271;28;20197;-69
2022/03/27 07:42:46;;;;;;;2.93;2.00;;;17.10;59.80;;;;;;5222941;28;20270;-69
2022/03/27 07:45:38;;;;;;;2.57;2.10;;;17.10;59.80;;;;;;5221752;28;20185;-68
2022/03/27 07:48:31;;;;;;;2.30;1.90;;;17.10;60.30;;;;;;5223221;28;20589;-69
2022/03/27 07:51:23;;;;;;;2.57;1.80;;;17.10;59.70;;;;;;5222193;28;20217;-69
2022/03/27 07:54:15;;;;;;;2.40;1.93;;;17.10;59.70;;;;;;5220693;28;20258;-69
2022/03/27 07:57:07;;;;;;;3.00;1.93;;;17.10;59.80;;;;;;5222778;28;20763;-68
2022/03/27 08:00:01;;;;;;;3.70;2.10;;;17.00;59.70;;;;;;5221759;28;20284;-69
2022/03/27 08:02:53;;;;;;;2.13;1.83;;;17.10;59.80;;;;;;5222371;28;20223;-69
2022/03/27 08:05:45;;;;;;;2.73;2.10;;;17.10;59.80;;;;;;5221919;28;20694;-69
2022/03/27 08:08:38;;;;;;;2.17;1.80;;;17.10;59.80;;;;;;5202785;28;20809;-69
2022/03/27 08:11:30;;;;;;;4.17;2.13;;;17.00;59.70;;;;;;5206392;28;20706;-69
2022/03/27 08:14:24;;;;;;;2.57;1.70;;;17.10;59.80;;;;;;5221462;28;20217;-69
2022/03/27 08:17:18;;;;;;;3.27;2.20;;;17.10;60.30;;;;;;5222407;28;20287;-69
2022/03/27 08:20:11;;;;;;;4.97;1.90;;;17.10;59.80;;;;;;5221807;28;20338;-69
2022/03/27 08:23:03;;;;;;;2.47;1.80;;;17.00;59.70;;;;;;5221667;28;20710;-69
2022/03/27 08:29:05;;;;;;;2.87;1.90;;;17.10;59.80;;;;;;5221805;28;20239;-69
2022/03/27 08:32:00;;;;;;;2.47;1.80;;;17.10;59.70;;;;;;5221126;28;20228;-69
2022/03/27 08:34:54;;;;;;;3.13;2.00;;;17.10;59.70;;;;;;5203364;28;20695;-69
2022/03/27 08:37:46;;;;;;;3.50;2.20;;;17.10;59.80;;;;;;5222009;28;20197;-69
2022/03/27 08:40:39;;;;;;;2.77;2.03;;;17.00;59.70;;;;;;5222627;28;20288;-69
2022/03/27 08:43:33;;;;;;;2.97;2.10;;;17.10;59.80;;;;;;5222186;28;20201;-69
2022/03/27 08:46:27;;;;;;;3.00;2.30;;;17.10;59.80;;;;;;5222290;28;20667;-69
2022/03/27 08:49:30;;;;;;;3.60;2.30;;;17.10;59.80;;;;;;5221349;28;20424;-69
2022/03/27 08:52:35;;;;;;;4.00;2.20;;;17.00;59.80;;;;;;5221511;28;20724;-69
2022/03/27 08:55:46;;;;;;;1.90;1.60;;;17.10;59.80;;;;;;5221688;28;20216;-69
2022/03/27 08:58:39;;;;;;;2.67;1.73;;;17.00;59.70;;;;;;5220187;28;20216;-69
2022/03/27 09:01:32;;;;;;;2.50;1.90;;;17.00;59.70;;;;;;5219318;28;20605;-70
2022/03/27 09:04:24;;;;;;;3.27;1.90;;;17.10;60.40;;;;;;5222016;28;20201;-69
2022/03/27 09:07:16;;;;;;;2.50;1.80;;;17.10;59.80;;;;;;5221083;28;20343;-69
2022/03/27 09:10:12;;;;;;;2.90;1.90;;;17.00;59.80;;;;;;5218932;28;20213;-69
2022/03/27 09:13:04;;;;;;;2.87;2.00;;;17.00;59.80;;;;;;5220799;28;20362;-69
2022/03/27 09:15:59;;;;;;;2.77;1.80;;;17.00;59.80;;;;;;5202317;28;20645;-69
2022/03/27 09:18:53;;;;;;;3.23;2.07;;;17.10;59.80;;;;;;5201024;28;20198;-69
2022/03/27 09:21:51;;;;;;;1.50;1.27;;;17.00;59.80;;;;;;5213152;28;20598;-69
2022/03/27 09:24:47;;;;;;;2.60;1.80;;;17.10;59.80;;;;;;5222032;28;20200;-69
2022/03/27 09:27:41;;;;;;;2.37;1.70;;;17.00;59.80;;;;;;5221877;28;20253;-69
2022/03/27 09:30:36;;;;;;;2.97;2.03;;;17.00;59.80;;;;;;5221082;28;20288;-69
2022/03/27 09:33:48;;;;;;;2.83;2.03;;;17.00;59.80;;;;;;5221042;28;20590;-69
2022/03/27 09:36:44;;;;;;;1.97;1.60;;;17.10;59.80;;;;;;5221353;28;20720;-69
2022/03/27 09:39:36;;;;;;;2.87;1.83;;;17.00;60.40;;;;;;5221300;28;20204;-69
2022/03/27 09:42:28;;;;;;;1.93;1.73;;;17.10;59.90;;;;;;5219537;28;20454;-69
2022/03/27 09:45:24;;;;;;;2.23;1.60;;;17.10;59.90;;;;;;5221150;28;20272;-69
2022/03/27 09:48:16;;;;;;;1.90;1.70;;;17.00;59.80;;;;;;5220252;28;20280;-69
2022/03/27 09:51:09;;;;;;;2.50;1.70;;;17.00;59.80;;;;;;5213926;28;20629;-69
2022/03/27 09:54:01;;;;;;;2.17;1.70;;;17.00;59.80;;;;;;5221084;28;20193;-69
2022/03/27 09:56:53;;;;;;;2.93;1.87;;;17.00;59.80;;;;;;5219893;28;20213;-69
2022/03/27 09:59:46;;;;;;;2.33;1.90;;;17.00;59.80;;;;;;5220574;28;20742;-69
2022/03/27 10:02:41;;;;;;;3.13;2.00;;;17.00;59.90;;;;;;5220653;28;20221;-70
2022/03/27 10:05:33;;;;;;;2.53;1.80;;;17.00;59.90;;;;;;5220889;28;20322;-69
2022/03/27 10:08:25;;;;;;;2.63;1.63;;;17.00;59.80;;;;;;5220736;28;20248;-69
2022/03/27 10:11:21;;;;;;;3.53;2.07;;;17.00;59.90;;;;;;5219755;28;20216;-69
2022/03/27 10:14:13;;;;;;;2.70;2.07;;;17.00;59.80;;;;;;5220283;28;20250;-69
2022/03/27 10:17:08;;;;;;;2.27;1.80;;;17.00;59.90;;;;;;5220464;28;20246;-69
2022/03/27 10:20:07;;;;;;;2.27;1.67;;;17.10;59.90;;;;;;5220328;28;20212;-69
2022/03/27 10:23:03;;;;;;;1.97;1.60;;;17.00;59.90;;;;;;5203686;28;20324;-69
2022/03/27 10:25:59;;;;;;;2.60;1.70;;;17.00;59.90;;;;;;5220612;28;20193;-69
2022/03/27 10:28:52;;;;;;;1.80;1.67;;;17.00;60.50;;;;;;5222634;28;20194;-69
2022/03/27 10:31:44;;;;;;;1.60;1.50;;;17.00;59.90;;;;;;5224410;28;20286;-69
2022/03/27 10:34:43;;;;;;;2.67;1.73;;;17.00;59.90;;;;;;5224651;28;20189;-69
2022/03/27 10:37:44;;;;;;;2.10;1.77;;;17.00;59.90;;;;;;5225209;28;20197;-68
2022/03/27 10:40:46;;;;;;;2.00;1.60;;;17.10;60.00;;;;;;5223879;28;20196;-69
2022/03/27 10:43:47;;;;;;;2.70;2.00;;;17.00;59.90;;;;;;5225287;28;20708;-70
2022/03/27 10:46:40;;;;;;;2.10;1.90;;;17.00;60.00;;;;;;5224507;28;20201;-69
2022/03/27 10:49:32;;;;;;;2.63;2.03;;;17.00;60.00;;;;;;5224481;28;20197;-69
2022/03/27 10:52:24;;;;;;;1.70;1.50;;;17.00;59.90;;;;;;5223980;28;20217;-69
2022/03/27 10:55:19;;;;;;;2.00;1.70;;;17.10;60.00;;;;;;5220356;28;20217;-69
2022/03/27 10:58:36;;;;;;;2.27;1.73;;;17.00;60.00;;;;;;5219201;28;20672;-69
2022/03/27 11:01:39;;;;;;;1.93;1.57;;;17.10;60.10;;;;;;5218124;28;20251;-69
2022/03/27 11:04:38;;;;;;;2.93;1.90;;;17.00;60.00;;;;;;5224867;28;20189;-69
2022/03/27 11:07:30;;;;;;;2.70;1.80;;;17.00;60.50;;;;;;5223864;28;20204;-69
2022/03/27 11:10:42;;;;;;;1.53;1.43;;;17.00;60.00;;;;;;5224317;28;20279;-69
2022/03/27 11:13:39;;;;;;;3.10;2.00;;;17.00;60.00;;;;;;5223242;28;20303;-69
2022/03/27 11:16:33;;;;;;;2.27;1.87;;;17.10;60.00;;;;;;5221274;28;20227;-69
2022/03/27 11:19:41;;;;;;;2.20;1.70;;;17.00;60.00;;;;;;5223481;28;20209;-69
2022/03/27 11:22:49;;;;;;;1.70;1.60;;;17.00;60.00;;;;;;5203082;28;20642;-69
2022/03/27 11:25:46;;;;;;;1.70;1.60;;;17.00;60.00;;;;;;5209520;28;20673;-69
2022/03/27 11:28:47;;;;;;;2.00;1.80;;;17.00;60.10;;;;;;5223477;28;20200;-69
2022/03/27 11:31:40;;;;;;;1.63;1.40;;;17.00;60.10;;;;;;5222418;28;20221;-69
2022/03/27 11:34:32;;;;;;;2.93;1.87;;;17.00;60.10;;;;;;5224173;28;20208;-69
2022/03/27 11:37:25;;;;;;;1.80;1.60;;;17.00;60.10;;;;;;5224245;28;20254;-69
2022/03/27 11:40:41;;;;;;;2.07;1.70;;;17.00;60.00;;;;;;5222074;28;20250;-69
2022/03/27 11:43:36;;;;;;;2.60;1.47;;;17.00;60.10;;;;;;5223294;28;20230;-69
2022/03/27 11:46:29;;;;;;;1.93;1.60;;;17.00;60.10;;;;;;5222602;28;20189;-69
2022/03/27 11:49:23;;;;;;;1.97;1.77;;;17.00;60.10;;;;;;5224855;28;20197;-69
2022/03/27 11:52:18;;;;;;;2.10;1.60;;;17.00;60.10;;;;;;5222338;28;20245;-69
2022/03/27 11:55:12;;;;;;;2.07;1.80;;;17.00;60.20;;;;;;5219465;28;20355;-69
2022/03/27 11:58:07;;;;;;;2.30;1.70;;;17.00;60.10;;;;;;5225690;28;20323;-69
2022/03/27 12:01:05;;;;;;;3.00;2.17;;;17.00;60.10;;;;;;5222715;28;20544;-69
2022/03/27 12:03:58;;;;;;;1.90;1.43;;;17.00;60.20;;;;;;5222458;28;20694;-69
2022/03/27 12:06:55;;;;;;;1.73;1.40;;;17.00;60.20;;;;;;5200950;28;20205;-69
2022/03/27 12:09:57;;;;;;;2.13;1.87;;;17.00;60.20;;;;;;5209208;28;20193;-69
2022/03/27 12:12:56;;;;;;;2.07;1.60;;;17.00;60.20;;;;;;5222739;28;20250;-69
2022/03/27 12:15:50;;;;;;;1.73;1.63;;;17.00;60.20;;;;;;5222507;28;20213;-69
2022/03/27 12:18:44;;;;;;;2.17;1.87;;;17.00;60.20;;;;;;5222730;28;20197;-69
2022/03/27 12:21:45;;;;;;;2.00;1.80;;;17.00;60.20;;;;;;5221646;28;20702;-69
2022/03/27 12:24:41;;;;;;;2.07;1.50;;;17.00;60.20;;;;;;5222362;28;20280;-69
2022/03/27 12:30:44;;;;;;;1.70;1.60;;;17.00;60.20;;;;;;5222618;28;20573;-69
2022/03/27 12:33:36;;;;;;;2.73;1.73;;;17.00;60.30;;;;;;5222382;28;20201;-69
2022/03/27 12:36:30;;;;;;;1.97;1.60;;;17.00;60.30;;;;;;5219032;28;20216;-69
2022/03/27 12:39:24;;;;;;;1.30;1.20;;;17.00;60.20;;;;;;5222010;28;20198;-69
2022/03/27 12:42:32;;;;;;;1.20;1.10;;;17.00;60.30;;;;;;5211409;28;20304;-69
2022/03/27 12:45:32;;;;;;;1.67;1.50;;;17.00;60.30;;;;;;5221561;28;20209;-69
2022/03/27 12:48:27;;;;;;;1.77;1.40;;;17.00;60.30;;;;;;5221627;28;20575;-69
2022/03/27 12:51:20;;;;;;;1.60;1.30;;;17.00;60.30;;;;;;5218990;28;20221;-69
2022/03/27 12:54:14;;;;;;;2.13;1.47;;;17.00;60.30;;;;;;5213480;28;20225;-69
2022/03/27 12:57:06;;;;;;;2.07;1.60;;;17.00;60.30;;;;;;5221729;28;20702;-69
2022/03/27 12:59:58;;;;;;;2.50;1.50;;;17.00;60.30;;;;;;5221808;28;20690;-69
2022/03/27 13:02:50;;;;;;;1.83;1.57;;;17.00;60.30;;;;;;5220816;28;20217;-69
2022/03/27 13:05:44;;;;;;;2.03;1.80;;;17.00;60.30;;;;;;5221340;28;20193;-69
2022/03/27 13:08:39;;;;;;;2.13;1.67;;;17.00;60.30;;;;;;5221621;28;20197;-69
2022/03/27 13:11:39;;;;;;;2.37;1.60;;;17.00;60.30;;;;;;5220853;28;20213;-69
2022/03/27 13:14:44;;;;;;;2.23;1.60;;;17.00;60.30;;;;;;5218962;28;20212;-69
2022/03/27 13:17:36;;;;;;;2.10;1.53;;;17.00;60.30;;;;;;5216404;28;20690;-69
2022/03/27 13:20:30;;;;;;;1.80;1.60;;;17.00;60.30;;;;;;5221474;28;20955;-69
2022/03/27 13:23:22;;;;;;;1.37;1.23;;;17.00;60.30;;;;;;5221185;28;20264;-70
2022/03/27 13:26:14;;;;;;;2.43;1.87;;;17.00;60.30;;;;;;5221928;28;20189;-70
2022/03/27 13:29:08;;;;;;;2.37;1.87;;;17.00;60.40;;;;;;5218699;28;20197;-69
2022/03/27 13:32:01;;;;;;;2.70;2.00;;;17.00;60.30;;;;;;5200061;28;20589;-69
2022/03/27 13:34:53;;;;;;;1.50;1.20;;;17.00;60.30;;;;;;5207353;28;20193;-69
2022/03/27 13:37:46;;;;;;;1.83;1.47;;;17.00;60.30;;;;;;5221709;28;20275;-69
2022/03/27 13:43:50;;;;;;;2.80;1.63;;;17.00;60.30;;;;;;5209728;28;20216;-69
2022/03/27 13:46:44;;;;;;;2.00;1.80;;;17.00;60.40;;;;;;5221392;28;20200;-69
2022/03/27 13:49:36;;;;;;;2.23;1.60;;;17.00;60.40;;;;;;5220743;28;20193;-69
2022/03/27 13:52:28;;;;;;;1.60;1.50;;;17.00;60.40;;;;;;5218708;28;20251;-69
2022/03/27 13:55:20;;;;;;;1.70;1.40;;;17.00;60.40;;;;;;5220793;28;20231;-69
2022/03/27 13:58:12;;;;;;;2.23;1.80;;;17.00;60.40;;;;;;5220970;28;20212;-69
2022/03/27 14:01:04;;;;;;;1.63;1.50;;;17.00;60.40;;;;;;5221142;28;20757;-69
2022/03/27 14:03:58;;;;;;;1.90;1.37;;;17.00;60.40;;;;;;5223790;28;20221;-69
2022/03/27 14:06:50;;;;;;;1.90;1.70;;;17.00;60.40;;;;;;5225911;28;20188;-69
2022/03/27 14:09:43;;;;;;;1.97;1.33;;;17.00;60.40;;;;;;5224634;28;20200;-69
2022/03/27 14:12:35;;;;;;;2.27;1.77;;;17.00;60.40;;;;;;5217883;28;20300;-69
2022/03/27 14:15:27;;;;;;;2.10;1.67;;;17.00;60.40;;;;;;5224614;28;20531;-69
2022/03/27 14:18:20;;;;;;;2.07;1.30;;;17.00;60.40;;;;;;5226120;28;20193;-72
2022/03/27 14:21:13;;;;;;;1.93;1.63;;;17.00;60.50;;;;;;5224786;28;20363;-70
2022/03/27 14:24:06;;;;;;;1.60;1.50;;;17.00;60.40;;;;;;5224901;28;20967;-70
2022/03/27 14:26:58;;;;;;;1.47;1.37;;;17.00;60.30;;;;;;5225076;28;20223;-74
2022/03/27 14:29:50;;;;;;;1.83;1.30;;;17.10;60.40;;;;;;5225185;28;20363;-77
2022/03/27 14:32:44;;;;;;;1.90;1.47;;;17.10;60.40;;;;;;5223969;28;20304;-78
2022/03/27 14:35:36;;;;;;;2.70;1.70;;;17.10;60.50;;;;;;5219915;28;20204;-78
2022/03/27 14:38:30;;;;;;;1.93;1.40;;;17.10;60.40;;;;;;5217859;28;20570;-77
2022/03/27 14:41:22;;;;;;;4.70;1.60;;;17.10;60.40;;;;;;5221028;28;20209;-68
2022/03/27 14:44:15;;;;;;;2.77;1.53;;;17.10;60.30;;;;;;5220232;28;20237;-68
2022/03/27 14:47:07;;;;;;;5.00;1.83;;;17.10;60.20;;;;;;5223107;28;20196;-68
2022/03/27 14:50:00;;;;;;;2.83;1.87;;;17.10;60.30;;;;;;5223109;28;20193;-68
2022/03/27 14:52:53;;;;;;;2.03;1.70;;;17.00;60.30;;;;;;5222983;28;20249;-68
2022/03/27 14:55:57;;;;;;;1.97;1.70;;;17.00;60.40;;;;;;5220839;28;20255;-68
2022/03/27 14:58:50;;;;;;;3.20;1.90;;;17.00;60.40;;;;;;5222853;28;20201;-69
2022/03/27 15:01:44;;;;;;;2.60;1.87;;;17.00;60.40;;;;;;5223721;28;20643;-70
2022/03/27 15:04:36;;;;;;;3.93;1.53;;;17.00;60.40;;;;;;5224329;28;20784;-68
2022/03/27 15:07:28;;;;;;;2.33;1.47;;;16.90;60.40;;;;;;5224767;28;20641;-70
2022/03/27 15:10:23;;;;;;;2.70;1.80;;;16.90;60.50;;;;;;5223964;28;20280;-69
2022/03/27 15:13:17;;;;;;;2.43;1.50;;;16.90;60.60;;;;;;5222262;28;20279;-69
2022/03/27 15:16:09;;;;;;;2.63;1.80;;;16.90;60.70;;;;;;5223876;28;20231;-69
2022/03/27 15:19:01;;;;;;;2.37;1.60;;;16.90;60.70;;;;;;5216268;28;20315;-69